createdAt,value
2018-06-04T00:00:17.722Z,35.77
2018-06-04T00:02:46.225Z,37.50
2018-06-04T00:05:14.777Z,33.20
2018-06-04T00:07:42.984Z,36.50
2018-06-04T00:10:11.551Z,36.73
2018-06-04T00:12:40.131Z,37.83
2018-06-04T00:15:08.674Z,36.17
2018-06-04T00:17:37.189Z,36.03
2018-06-04T00:20:05.967Z,35.60
2018-06-04T00:22:34.562Z,37.37
2018-06-04T00:25:03.081Z,35.43
2018-06-04T00:27:31.725Z,37.10
2018-06-04T00:30:01.226Z,36.13
2018-06-04T00:32:29.784Z,35.20
2018-06-04T00:34:58.322Z,36.70
2018-06-04T00:37:26.812Z,38.40
2018-06-04T00:39:55.334Z,38.17
2018-06-04T00:42:23.909Z,35.77
2018-06-04T00:44:52.417Z,36.80
2018-06-04T00:47:21.031Z,36.80
2018-06-04T00:49:49.696Z,37.77
2018-06-04T00:52:18.202Z,35.17
2018-06-04T00:54:46.700Z,35.00
2018-06-04T00:57:15.285Z,35.70
2018-06-04T00:59:44.403Z,36.53
2018-06-04T01:02:13.040Z,37.17
2018-06-04T01:04:41.621Z,34.47
2018-06-04T01:07:10.159Z,34.37
2018-06-04T01:09:38.718Z,36.07
2018-06-04T01:12:07.224Z,33.37
2018-06-04T01:14:35.812Z,35.00
2018-06-04T01:17:04.367Z,35.10
2018-06-04T01:19:32.921Z,36.27
2018-06-04T01:22:01.502Z,32.90
2018-06-04T01:24:29.993Z,34.20
2018-06-04T01:26:59.116Z,35.33
2018-06-04T01:29:27.657Z,34.33
2018-06-04T01:31:56.265Z,33.53
2018-06-04T01:34:24.846Z,35.07
2018-06-04T01:36:53.375Z,32.87
2018-06-04T01:39:21.962Z,33.80
2018-06-04T01:41:50.562Z,34.43
2018-06-04T01:44:19.196Z,33.90
2018-06-04T01:46:47.754Z,34.77
2018-06-04T01:49:16.281Z,34.50
2018-06-04T01:51:45.823Z,34.20
2018-06-04T01:54:14.337Z,33.90
2018-06-04T01:56:42.958Z,34.90
2018-06-04T01:59:11.488Z,33.57
2018-06-04T02:01:40.089Z,34.73
2018-06-04T02:04:08.592Z,35.33
2018-06-04T02:06:38.051Z,33.77
2018-06-04T02:09:07.660Z,35.27
2018-06-04T02:11:36.265Z,34.60
2018-06-04T02:14:08.768Z,35.20
2018-06-04T02:16:37.246Z,32.87
2018-06-04T02:19:05.779Z,33.77
2018-06-04T02:21:34.366Z,36.63
2018-06-04T02:24:02.888Z,36.83
2018-06-04T02:26:31.433Z,39.07
2018-06-04T02:29:00.062Z,42.27
2018-06-04T02:31:29.374Z,42.23
2018-06-04T02:33:58.598Z,42.63
2018-06-04T02:36:27.931Z,46.80
2018-06-04T02:38:57.279Z,46.70
2018-06-04T02:41:27.516Z,44.83
2018-06-04T02:43:56.226Z,47.17
2018-06-04T02:46:25.426Z,46.83
2018-06-04T02:48:54.842Z,44.30
2018-06-04T02:51:23.626Z,49.07
2018-06-04T02:53:52.257Z,49.07
2018-06-04T02:56:20.774Z,50.07
2018-06-04T02:58:49.421Z,50.20
2018-06-04T03:01:18.501Z,49.57
2018-06-04T03:03:47.053Z,49.23
2018-06-04T03:06:15.620Z,49.13
2018-06-04T03:08:44.219Z,50.07
2018-06-04T03:11:12.866Z,47.80
2018-06-04T03:13:41.620Z,50.07
2018-06-04T03:16:10.146Z,49.63
2018-06-04T03:18:38.965Z,49.80
2018-06-04T03:21:07.589Z,49.93
2018-06-04T03:23:36.106Z,48.47
2018-06-04T03:26:04.712Z,50.70
2018-06-04T03:28:33.227Z,48.43
2018-06-04T03:31:01.442Z,49.03
2018-06-04T03:33:30.036Z,48.50
2018-06-04T03:35:58.645Z,48.47
2018-06-04T03:38:27.233Z,47.73
2018-06-04T03:40:55.743Z,50.77
2018-06-04T03:43:24.225Z,49.73
2018-06-04T03:45:52.694Z,50.00
2018-06-04T03:48:21.306Z,47.87
2018-06-04T03:50:49.517Z,49.23
2018-06-04T03:53:18.097Z,48.97
2018-06-04T03:55:46.709Z,48.40
2018-06-04T03:58:15.254Z,48.87
2018-06-04T04:00:44.106Z,45.50
2018-06-04T04:03:12.657Z,47.33
2018-06-04T04:05:41.143Z,44.00
2018-06-04T04:08:09.661Z,46.40
2018-06-04T04:10:38.227Z,44.57
2018-06-04T04:13:07.132Z,46.37
2018-06-04T04:15:36.381Z,45.67
2018-06-04T04:18:05.048Z,44.80
2018-06-04T04:20:33.672Z,46.13
2018-06-04T04:23:02.198Z,46.07
2018-06-04T04:25:31.458Z,45.57
2018-06-04T04:28:00.079Z,47.20
2018-06-04T04:30:28.559Z,44.03
2018-06-04T04:32:57.063Z,44.50
2018-06-04T04:35:25.651Z,45.63
2018-06-04T04:37:54.369Z,43.30
2018-06-04T04:40:22.915Z,42.97
2018-06-04T04:42:51.480Z,42.13
2018-06-04T04:45:20.076Z,41.50
2018-06-04T04:47:48.622Z,42.90
2018-06-04T04:50:17.332Z,42.90
2018-06-04T04:52:46.932Z,42.53
2018-06-04T04:55:15.119Z,41.83
2018-06-04T04:57:43.708Z,42.50
2018-06-04T05:00:12.273Z,40.37
2018-06-04T05:02:40.879Z,42.13
2018-06-04T05:05:09.410Z,42.50
2018-06-04T05:07:38.030Z,40.00
2018-06-04T05:10:06.551Z,41.33
2018-06-04T05:12:35.106Z,41.33
2018-06-04T05:15:03.714Z,41.93
2018-06-04T05:17:32.259Z,37.73
2018-06-04T05:20:00.829Z,37.83
2018-06-04T05:22:29.385Z,39.47
2018-06-04T05:24:58.229Z,38.77
2018-06-04T05:27:26.840Z,39.97
2018-06-04T05:29:55.362Z,38.97
2018-06-04T05:32:23.916Z,39.10
2018-06-04T05:34:52.431Z,37.33
2018-06-04T05:37:21.022Z,37.40
2018-06-04T05:39:49.615Z,38.07
2018-06-04T05:42:18.270Z,38.63
2018-06-04T05:44:46.773Z,37.27
2018-06-04T05:47:15.388Z,40.00
2018-06-04T05:49:43.944Z,37.60
2018-06-04T05:52:13.529Z,37.83
2018-06-04T05:54:42.126Z,37.00
2018-06-04T05:57:10.708Z,39.10
2018-06-04T05:59:39.257Z,37.57
2018-06-04T06:02:07.785Z,37.73
2018-06-04T06:04:36.349Z,39.73
2018-06-04T06:07:04.926Z,38.93
2018-06-04T06:09:33.377Z,39.17
2018-06-04T06:12:01.938Z,38.37
2018-06-04T06:14:30.452Z,36.50
2018-06-04T06:16:58.982Z,37.53
2018-06-04T06:19:27.535Z,39.07
2018-06-04T06:21:56.098Z,38.00
2018-06-04T06:24:25.554Z,38.83
2018-06-04T06:26:54.023Z,39.93
2018-06-04T06:29:22.518Z,38.13
2018-06-04T06:31:51.024Z,39.27
2018-06-04T06:34:19.574Z,40.23
2018-06-04T06:36:48.122Z,39.50
2018-06-04T06:39:16.653Z,38.30
2018-06-04T06:41:45.194Z,39.80
2018-06-04T06:44:13.703Z,38.20
2018-06-04T06:46:42.161Z,37.43
2018-06-04T06:49:10.664Z,38.43
2018-06-04T06:51:39.124Z,36.87
2018-06-04T06:54:07.686Z,34.70
2018-06-04T06:56:36.228Z,36.07
2018-06-04T06:59:04.816Z,35.03
2018-06-04T07:01:33.311Z,36.80
2018-06-04T07:04:01.804Z,38.60
2018-06-04T07:06:30.349Z,36.57
2018-06-04T07:08:58.811Z,37.10
2018-06-04T07:11:27.280Z,34.90
2018-06-04T07:13:55.798Z,33.23
2018-06-04T07:16:24.256Z,35.40
2018-06-04T07:18:52.774Z,35.57
2018-06-04T07:21:21.230Z,36.20
2018-06-04T07:23:49.726Z,36.83
2018-06-04T07:26:18.321Z,38.10
2018-06-04T07:28:46.816Z,35.30
2018-06-04T07:31:15.338Z,38.57
2018-06-04T07:33:43.818Z,35.47
2018-06-04T07:36:12.441Z,37.30
2018-06-04T07:38:41.272Z,36.77
2018-06-04T07:41:09.874Z,36.73
2018-06-04T07:43:38.417Z,36.53
2018-06-04T07:46:06.906Z,35.43
2018-06-04T07:48:35.506Z,37.43
2018-06-04T07:51:04.036Z,34.63
2018-06-04T07:53:32.575Z,36.30
2018-06-04T07:56:01.104Z,36.37
2018-06-04T07:58:29.633Z,34.10
2018-06-04T08:00:58.165Z,35.73
2018-06-04T08:03:26.697Z,36.57
2018-06-04T08:05:55.158Z,35.87
2018-06-04T08:08:23.629Z,35.97
2018-06-04T08:10:52.725Z,36.53
2018-06-04T08:13:21.250Z,34.97
2018-06-04T08:15:49.836Z,35.40
2018-06-04T08:18:18.451Z,34.67
2018-06-04T08:20:47.040Z,35.77
2018-06-04T08:23:15.577Z,35.43
2018-06-04T08:25:44.212Z,35.60
2018-06-04T08:28:12.787Z,34.73
2018-06-04T08:30:41.362Z,34.77
2018-06-04T08:33:09.943Z,32.33
2018-06-04T08:35:38.546Z,34.33
2018-06-04T08:38:07.048Z,34.98
2018-06-04T08:40:35.553Z,38.55
2018-06-04T08:43:04.126Z,32.27
2018-06-04T08:45:32.640Z,27.13
2018-06-04T08:48:01.116Z,30.17
2018-06-04T08:50:29.787Z,29.30
2018-06-04T08:52:58.269Z,30.50
2018-06-04T08:55:26.829Z,29.90
2018-06-04T08:57:55.388Z,31.37
2018-06-04T09:00:23.949Z,27.30
2018-06-04T09:02:52.182Z,29.80
2018-06-04T09:05:20.826Z,29.37
2018-06-04T09:07:49.383Z,28.03
2018-06-04T09:10:17.975Z,26.90
2018-06-04T09:12:46.548Z,26.17
2018-06-04T09:15:15.221Z,26.70
2018-06-04T09:17:43.812Z,28.93
2018-06-04T09:20:12.360Z,29.67
2018-06-04T09:22:40.900Z,26.47
2018-06-04T09:25:09.513Z,27.37
2018-06-04T09:27:38.088Z,29.10
2018-06-04T09:30:06.741Z,29.60
2018-06-04T09:32:35.332Z,31.17
2018-06-04T09:35:03.939Z,28.57
2018-06-04T09:37:32.556Z,29.53
2018-06-04T09:40:01.127Z,31.13
2018-06-04T09:42:29.766Z,27.83
2018-06-04T09:44:58.314Z,27.53
2018-06-04T09:47:26.523Z,25.33
2018-06-04T09:49:55.112Z,26.83
2018-06-04T09:52:23.627Z,26.70
2018-06-04T09:54:52.215Z,28.73
2018-06-04T09:57:20.755Z,28.53
2018-06-04T09:59:48.987Z,28.70
2018-06-04T10:02:17.625Z,27.90
2018-06-04T10:04:46.141Z,27.67
2018-06-04T10:07:14.801Z,26.47
2018-06-04T10:09:43.321Z,26.23
2018-06-04T10:12:13.258Z,27.40
2018-06-04T10:14:41.783Z,25.80
2018-06-04T10:17:10.362Z,27.33
2018-06-04T10:19:38.936Z,28.90
2018-06-04T10:22:07.529Z,31.33
2018-06-04T10:24:36.038Z,27.07
2018-06-04T10:27:04.295Z,31.30
2018-06-04T10:29:32.896Z,34.90
2018-06-04T10:32:01.537Z,34.20
2018-06-04T10:34:30.135Z,30.97
2018-06-04T10:36:58.665Z,27.87
2018-06-04T10:39:27.252Z,24.97
2018-06-04T10:41:55.496Z,27.60
2018-06-04T10:44:24.045Z,28.73
2018-06-04T10:46:52.684Z,27.90
2018-06-04T10:49:21.207Z,30.77
2018-06-04T10:51:49.963Z,31.23
2018-06-04T10:54:18.510Z,30.13
2018-06-04T10:56:47.050Z,27.33
2018-06-04T10:59:15.660Z,27.43
2018-06-04T11:01:44.230Z,28.13
2018-06-04T11:04:12.830Z,27.87
2018-06-04T11:06:41.429Z,29.00
2018-06-04T11:09:10.675Z,26.67
2018-06-04T11:11:39.214Z,29.33
2018-06-04T11:14:07.780Z,28.67
2018-06-04T11:16:36.368Z,30.67
2018-06-04T11:19:04.954Z,29.43
2018-06-04T11:21:33.483Z,26.13
2018-06-04T11:24:02.017Z,31.47
2018-06-04T11:26:30.612Z,29.70
2018-06-04T11:28:59.135Z,30.50
2018-06-04T11:31:27.631Z,28.97
2018-06-04T11:33:56.854Z,29.07
2018-06-04T11:36:26.078Z,30.10
2018-06-04T11:38:55.007Z,30.57
2018-06-04T11:41:23.579Z,32.10
2018-06-04T11:43:52.240Z,29.23
2018-06-04T11:46:20.796Z,29.50
2018-06-04T11:48:49.367Z,31.87
2018-06-04T11:51:17.958Z,32.47
2018-06-04T11:53:46.503Z,31.20
2018-06-04T11:56:15.071Z,31.07
2018-06-04T11:58:43.657Z,32.03
2018-06-04T12:01:12.239Z,32.80
2018-06-04T12:03:40.808Z,30.10
2018-06-04T12:06:09.410Z,34.87
2018-06-04T12:08:41.540Z,31.03
2018-06-04T12:11:10.108Z,32.43
2018-06-04T12:13:38.672Z,30.93
2018-06-04T12:16:07.184Z,31.10
2018-06-04T12:18:35.757Z,29.17
2018-06-04T12:21:04.285Z,27.23
2018-06-04T12:23:32.807Z,31.67
2018-06-04T12:26:01.337Z,32.07
2018-06-04T12:28:29.888Z,32.57
2018-06-04T12:30:58.381Z,28.53
2018-06-04T12:33:26.889Z,24.30
2018-06-04T12:35:55.427Z,24.10
2018-06-04T12:38:24.002Z,28.53
2018-06-04T12:40:52.643Z,30.43
2018-06-04T12:43:21.171Z,28.47
2018-06-04T12:45:49.702Z,33.97
2018-06-04T12:48:18.913Z,30.10
2018-06-04T12:50:47.448Z,29.27
2018-06-04T12:53:16.641Z,34.50
2018-06-04T12:55:45.200Z,29.50
2018-06-04T12:58:13.483Z,28.73
2018-06-04T13:00:41.760Z,26.20
2018-06-04T13:03:09.997Z,29.07
2018-06-04T13:05:38.537Z,24.30
2018-06-04T13:08:07.121Z,26.03
2018-06-04T13:10:35.385Z,27.43
2018-06-04T13:13:03.975Z,24.37
2018-06-04T13:15:32.530Z,25.33
2018-06-04T13:18:01.113Z,24.23
2018-06-04T13:20:29.687Z,23.27
2018-06-04T13:22:58.299Z,23.47
2018-06-04T13:25:26.854Z,24.53
2018-06-04T13:27:55.440Z,25.93
2018-06-04T13:32:59.124Z,26.83
2018-06-04T13:35:27.679Z,23.13
2018-06-04T13:37:56.215Z,22.70
2018-06-04T13:40:24.515Z,21.50
2018-06-04T13:42:53.288Z,21.27
2018-06-04T13:45:21.842Z,20.33
2018-06-04T13:47:50.417Z,21.63
2018-06-04T13:50:19.085Z,20.33
2018-06-04T13:52:47.686Z,20.47
2018-06-04T13:55:16.210Z,17.17
2018-06-04T13:57:44.843Z,20.33
2018-06-04T14:00:13.342Z,21.23
2018-06-04T14:02:41.943Z,19.93
2018-06-04T14:05:10.548Z,19.90
2018-06-04T14:07:39.176Z,20.87
2018-06-04T14:10:07.839Z,23.00
2018-06-04T14:12:36.059Z,18.83
2018-06-04T14:15:04.669Z,20.50
2018-06-04T14:17:33.257Z,20.00
2018-06-04T14:20:01.841Z,19.90
2018-06-04T14:22:30.411Z,17.17
2018-06-04T14:24:58.934Z,15.43
2018-06-04T14:27:27.689Z,15.67
2018-06-04T14:29:56.204Z,14.00
2018-06-04T14:32:25.270Z,16.97
2018-06-04T14:34:53.843Z,20.17
2018-06-04T14:37:22.679Z,18.40
2018-06-04T14:39:51.229Z,16.53
2018-06-04T14:42:19.762Z,17.50
2018-06-04T14:44:48.305Z,15.33
2018-06-04T14:47:16.893Z,14.60
2018-06-04T14:49:45.426Z,13.40
2018-06-04T14:52:13.922Z,15.20
2018-06-04T14:54:43.150Z,14.97
2018-06-04T14:57:11.663Z,12.40
2018-06-04T14:59:42.835Z,12.63
2018-06-04T15:02:11.537Z,14.30
2018-06-04T15:04:40.083Z,13.90
2018-06-04T15:07:08.593Z,14.37
2018-06-04T15:09:37.155Z,13.87
2018-06-04T15:12:05.772Z,12.20
2018-06-04T15:14:34.242Z,11.40
2018-06-04T15:17:02.750Z,12.17
2018-06-04T15:19:31.319Z,10.63
2018-06-04T15:21:59.829Z,12.30
2018-06-04T15:24:28.379Z,11.93
2018-06-04T15:26:57.758Z,12.40
2018-06-04T15:29:26.298Z,11.50
2018-06-04T15:31:54.895Z,12.73
2018-06-04T15:34:23.380Z,12.00
2018-06-04T15:36:52.032Z,11.83
2018-06-04T15:39:20.791Z,11.50
2018-06-04T15:41:48.993Z,11.63
2018-06-04T15:44:17.511Z,12.80
2018-06-04T15:46:46.017Z,10.23
2018-06-04T15:49:14.542Z,10.10
2018-06-04T15:51:43.146Z,11.77
2018-06-04T15:54:11.722Z,11.70
2018-06-04T15:56:40.994Z,10.80
2018-06-04T15:59:09.510Z,10.80
2018-06-04T16:01:38.036Z,9.77
2018-06-04T16:04:06.544Z,9.97
2018-06-04T16:06:35.056Z,9.97
2018-06-04T16:09:04.012Z,8.67
2018-06-04T16:11:32.490Z,8.90
2018-06-04T16:14:01.122Z,9.17
2018-06-04T16:16:29.806Z,8.40
2018-06-04T16:18:58.305Z,8.37
2018-06-04T16:21:27.064Z,8.80
2018-06-04T16:23:56.562Z,8.13
2018-06-04T16:26:25.210Z,8.03
2018-06-04T16:28:53.792Z,8.23
2018-06-04T16:31:22.400Z,7.60
2018-06-04T16:33:50.900Z,7.60
2018-06-04T16:36:19.375Z,7.53
2018-06-04T16:38:47.833Z,7.70
2018-06-04T16:41:16.467Z,7.43
2018-06-04T16:43:44.974Z,8.27
2018-06-04T16:46:13.451Z,7.20
2018-06-04T16:48:41.971Z,6.17
2018-06-04T16:51:10.999Z,7.20
2018-06-04T16:53:39.618Z,6.57
2018-06-04T16:56:08.115Z,6.80
2018-06-04T16:58:36.646Z,6.90
2018-06-04T17:01:05.227Z,6.77
2018-06-04T17:03:33.817Z,8.50
2018-06-04T17:06:02.338Z,7.83
2018-06-04T17:08:30.924Z,10.10
2018-06-04T17:10:59.642Z,8.70
2018-06-04T17:13:28.954Z,12.10
2018-06-04T17:15:57.480Z,9.10
2018-06-04T17:18:25.985Z,9.70
2018-06-04T17:20:55.082Z,10.73
2018-06-04T17:23:23.650Z,9.07
2018-06-04T17:25:52.533Z,8.83
2018-06-04T17:28:21.045Z,9.37
2018-06-04T17:30:49.701Z,9.53
2018-06-04T17:33:18.198Z,8.73
2018-06-04T17:35:46.733Z,8.67
2018-06-04T17:38:15.279Z,9.10
2018-06-04T17:40:43.978Z,8.27
2018-06-04T17:43:12.519Z,8.73
2018-06-04T17:45:41.012Z,8.67
2018-06-04T17:48:09.521Z,9.50
2018-06-04T17:50:38.098Z,8.53
2018-06-04T17:53:06.645Z,8.27
2018-06-04T17:55:35.175Z,9.50
2018-06-04T17:58:03.780Z,9.33
2018-06-04T18:00:32.258Z,9.63
2018-06-04T18:03:00.810Z,10.80
2018-06-04T18:05:29.328Z,11.13
2018-06-04T18:07:57.851Z,11.80
2018-06-04T18:10:26.320Z,11.97
2018-06-04T18:12:54.874Z,11.40
2018-06-04T18:15:23.377Z,12.50
2018-06-04T18:17:52.330Z,12.27
2018-06-04T18:20:20.834Z,12.40
2018-06-04T18:22:49.489Z,12.80
2018-06-04T18:25:18.373Z,12.33
2018-06-04T18:27:47.020Z,11.57
2018-06-04T18:30:15.598Z,11.17
2018-06-04T18:32:44.155Z,12.13
2018-06-04T18:35:12.789Z,12.20
2018-06-04T18:37:41.372Z,12.27
2018-06-04T18:40:09.999Z,11.90
2018-06-04T18:42:38.614Z,12.07
2018-06-04T18:45:07.195Z,12.03
2018-06-04T18:47:35.834Z,12.43
2018-06-04T18:50:04.522Z,11.90
2018-06-04T18:52:33.278Z,12.30
2018-06-04T18:55:01.960Z,12.47
2018-06-04T18:57:30.534Z,12.83
2018-06-04T18:59:59.154Z,12.80
2018-06-04T19:02:27.780Z,12.03
2018-06-04T19:04:56.346Z,12.97
2018-06-04T19:07:24.867Z,12.60
2018-06-04T19:09:53.427Z,12.77
2018-06-04T19:12:21.992Z,12.63
2018-06-04T19:14:50.587Z,12.60
2018-06-04T19:17:18.763Z,12.83
2018-06-04T19:19:47.386Z,12.17
2018-06-04T19:22:15.899Z,11.60
2018-06-04T19:24:44.419Z,12.00
2018-06-04T19:30:09.730Z,12.73
2018-06-04T19:32:38.268Z,11.93
2018-06-04T19:35:06.759Z,11.80
2018-06-04T19:37:35.341Z,12.30
2018-06-04T19:40:03.951Z,12.53
2018-06-04T19:42:32.516Z,12.57
2018-06-04T19:45:01.265Z,13.40
2018-06-04T19:47:29.866Z,12.50
2018-06-04T19:49:58.364Z,13.50
2018-06-04T19:52:26.894Z,12.40
2018-06-04T19:54:55.383Z,12.70
2018-06-04T19:57:23.890Z,11.53
2018-06-04T19:59:52.414Z,12.23
2018-06-04T20:02:20.954Z,13.03
2018-06-04T20:04:49.580Z,13.13
2018-06-04T20:07:18.101Z,13.30
2018-06-04T20:09:46.665Z,13.47
2018-06-04T20:12:15.212Z,13.90
2018-06-04T20:14:43.786Z,13.90
2018-06-04T20:17:12.010Z,13.20
2018-06-04T20:19:40.666Z,15.13
2018-06-04T20:22:09.230Z,14.50
2018-06-04T20:24:37.440Z,13.63
2018-06-04T20:27:05.617Z,13.80
2018-06-04T20:29:34.198Z,14.30
2018-06-04T20:32:02.727Z,14.77
2018-06-04T20:34:31.286Z,15.47
2018-06-04T20:36:59.915Z,15.23
2018-06-04T20:39:28.451Z,14.47
2018-06-04T20:41:56.971Z,15.33
2018-06-04T20:44:25.614Z,16.00
2018-06-04T20:46:54.205Z,15.40
2018-06-04T20:49:22.784Z,15.40
2018-06-04T20:51:51.332Z,15.27
2018-06-04T20:54:19.870Z,15.87
2018-06-04T20:56:48.387Z,16.20
2018-06-04T20:59:16.951Z,16.63
2018-06-04T21:01:45.618Z,16.33
2018-06-04T21:04:14.194Z,17.70
2018-06-04T21:06:42.752Z,17.53
2018-06-04T21:09:11.300Z,16.93
2018-06-04T21:11:39.796Z,16.93
2018-06-04T21:14:08.321Z,18.73
2018-06-04T21:16:36.938Z,17.47
2018-06-04T21:19:05.488Z,17.30
2018-06-04T21:21:34.060Z,17.93
2018-06-04T21:24:02.777Z,16.30
2018-06-04T21:26:31.319Z,17.77
2018-06-04T21:29:00.005Z,17.77
2018-06-04T21:31:28.517Z,17.80
2018-06-04T21:33:57.058Z,17.00
2018-06-04T21:36:25.615Z,18.33
2018-06-04T21:38:54.219Z,18.53
2018-06-04T21:41:22.721Z,19.13
2018-06-04T21:43:51.233Z,19.90
2018-06-04T21:46:19.734Z,18.87
2018-06-04T21:48:48.941Z,19.47
2018-06-04T21:51:17.461Z,19.57
2018-06-04T21:53:45.986Z,19.17
2018-06-04T21:56:14.557Z,19.57
2018-06-04T21:58:43.080Z,18.37
2018-06-04T22:01:11.699Z,19.53
2018-06-04T22:03:40.326Z,19.33
2018-06-04T22:06:09.023Z,18.80
2018-06-04T22:08:37.643Z,18.83
2018-06-04T22:11:06.316Z,18.60
2018-06-04T22:13:35.072Z,19.03
2018-06-04T22:16:03.664Z,19.03
2018-06-04T22:18:32.240Z,18.70
2018-06-04T22:21:00.779Z,18.93
2018-06-04T22:23:29.331Z,19.10
2018-06-04T22:25:57.874Z,18.00
2018-06-04T22:28:26.373Z,19.70
2018-06-04T22:30:55.025Z,18.43
2018-06-04T22:33:23.697Z,18.97
2018-06-04T22:35:52.327Z,19.53
2018-06-04T22:38:20.862Z,19.13
2018-06-04T22:40:49.105Z,20.13
2018-06-04T22:43:17.663Z,20.20
2018-06-04T22:45:46.081Z,21.53
2018-06-04T22:48:14.562Z,20.63
2018-06-04T22:51:01.708Z,19.47
2018-06-04T22:53:30.245Z,20.90
2018-06-04T22:55:58.881Z,21.90
2018-06-04T22:58:27.445Z,19.73
2018-06-04T23:00:55.933Z,19.70
2018-06-04T23:03:24.504Z,21.27
2018-06-04T23:05:52.993Z,21.33
2018-06-04T23:08:21.488Z,20.80
2018-06-04T23:10:50.009Z,21.53
2018-06-04T23:13:18.620Z,20.90
2018-06-04T23:15:47.187Z,21.43
2018-06-04T23:18:15.649Z,21.40
2018-06-04T23:20:44.158Z,21.60
2018-06-04T23:23:12.729Z,21.00
2018-06-04T23:25:40.868Z,21.03
2018-06-04T23:28:09.382Z,21.33
2018-06-04T23:30:37.898Z,21.13
2018-06-04T23:33:06.670Z,20.90
2018-06-04T23:35:38.192Z,21.20
2018-06-04T23:38:06.928Z,20.77
2018-06-04T23:40:35.434Z,20.83
2018-06-04T23:43:04.011Z,20.90
2018-06-04T23:45:32.504Z,21.70
2018-06-04T23:48:01.081Z,21.27
2018-06-04T23:50:29.632Z,22.07
2018-06-04T23:52:58.873Z,22.17
2018-06-04T23:55:27.405Z,21.13
2018-06-04T23:57:56.044Z,22.60
